Home > Products > Valid Products > MTR

000
SAUS41 KRLX 290600 COR
MTRCRW
METAR KCRW 290554Z 00000KT 6SM BR FEW065 BKN085 17/17 A2995 RMK AO2
SLP136 VLY FG 60000 T01720172 10200 20172 55002 $





000
SAUS41 KRLX 290500 COR
MTRCRW
METAR KCRW 290454Z 00000KT 8SM SCT060 BKN080 18/17 A2995 RMK AO2
RAB11E35 SLP136 P0000 T01780172 402280178 $





000
SAUS41 KRLX 290400 COR
MTRCRW
METAR KCRW 290354Z 00000KT 10SM BKN032 OVC070 18/17 A2995 RMK AO2
RAB12E39 SLP135 P0000 T01830172 $





000
SAUS41 KRLX 290300 COR
MTRCRW
METAR KCRW 290254Z 00000KT 9SM SCT030 BKN075 18/18 A2996 RMK AO2
SLP138 T01830178 51010 $





000
SAUS41 KRLX 290200 COR
MTRCRW
METAR KCRW 290154Z 00000KT 10SM BKN036 BKN085 19/18 A2996 RMK AO2
SLP138 T01890183 $





000
SAUS41 KRLX 290100 COR
MTRCRW
METAR KCRW 290054Z 25008KT 10SM FEW015 SCT024TCU BKN085 19/17 A2994
RMK AO2 SLP133 TCU N CB DSNT E VCSH VLY FG T01940172 $





000
SAUS41 KRLX 282355
MTRCRW
METAR KCRW 282354Z 26005KT 10SM SCT028TCU BKN075 20/17 A2993 RMK AO2
SLP128 TCU N CB DSNT NE VLY FG 60014 T02000172 10228 20183 50003 $





000
SAUS41 KRLX 282304 COR
MTRCRW
METAR KCRW 282254Z 30003KT 10SM SCT028 SCT075 21/18 A2993 RMK AO2
SLP128 CB DSNT N-NE T02110178 $





000
SAUS41 KRLX 282302 COR
MTRCRW
METAR KCRW 282254Z 30003KT 10SM SCT028 SCT075 21/18 A2993 RMK AO2
SLP128 CB DSNT N-NE T02110178 $





000
SAUS41 KRLX 282300 COR
MTRCRW
METAR KCRW 282254Z 30003KT 10SM SCT028 SCT075 21/18 A2993 RMK AO2
SLP128 CB DSNT N-NE T02110178 $





000
SAUS41 KRLX 282155
MTRCRW
METAR KCRW 282154Z 27006KT 10SM SCT028 BKN075 19/18 A2994 RMK AO2
RAB15E39 SLP131 CB DSNT N P0014 T01890178 $





000
SAUS41 KRLX 282121 COR
MTRCRW
SPECI KCRW 282115Z 27007KT 10SM -RA BKN027TCU OVC060 21/16 A2993 RMK
AO2 RAB15 TCU W-N P0000 T02110161 $





000
SAUS41 KRLX 282100 COR
MTRCRW
METAR KCRW 282054Z COR 27010G15KT 10SM SCT027 OVC070 22/16 A2992 RMK
AO2 RAB06E15 SLP124 P0000 60000 T02170161 51004 $





000
SAUS41 KRLX 282000 COR
MTRCRW
METAR KCRW 281954Z 29007KT 10SM SCT026TCU OVC055 22/16 A2992 RMK AO2
SLP122 TCU W-NW VCSH T02170156





000
SAUS41 KRLX 281900 COR
MTRCRW
METAR KCRW 281854Z 25009KT 10SM SCT028 OVC050 21/14 A2992 RMK AO2
SLP122 T02060144





000
SAUS41 KRLX 281800 COR
MTRCRW
METAR KCRW 281754Z 31011G19KT 10SM SCT026 OVC050 22/15 A2991 RMK AO2
SLP119 OCNL BINOVC T02170150 10222 20194 51009





000
SAUS41 KRLX 281700 COR
MTRCRW
METAR KCRW 281654Z 30012G21KT 10SM BKN023 BKN050 22/16 A2990 RMK AO2
SLP117 T02170156





000
SAUS41 KRLX 281600 COR
MTRCRW
METAR KCRW 281554Z 31008G17KT 260V330 10SM BKN023TCU OVC050 21/16
A2990 RMK AO2 SLP115 OVC V BKN TCU ALQDS T02060161





000
SAUS41 KRLX 281500 COR
MTRCRW
METAR KCRW 281454Z 30006G14KT 10SM OVC020 20/16 A2988 RMK AO2 SLP110
OVC V BKN T02000161 51015





000
SAUS41 KRLX 281400 COR
MTRCRW
METAR KCRW 281354Z 30010KT 10SM OVC017 20/16 A2987 RMK AO2 SLP106
OVC V BKN T02000161





000
SAUS41 KRLX 281300 COR
MTRCRW
METAR KCRW 281254Z 27008KT 10SM SCT017 BKN028 20/17 A2985 RMK AO2
SLP099 T02000172





000
SAUS41 KRLX 281200 COR
MTRCRW
METAR KCRW 281154Z 26008KT 10SM FEW017 SCT060 19/18 A2983 RMK AO2
SLP092 70061 T01940178 10206 20189 51015





000
SAUS41 KRLX 281100 COR
MTRCRW
METAR KCRW 281054Z 27006KT 10SM FEW012 BKN080 19/18 A2982 RMK AO2
SLP088 T01890183 $





000
SAUS41 KRLX 281000 COR
MTRCRW
METAR KCRW 280954Z 25007KT 10SM CLR 19/18 A2980 RMK AO2 SLP081
T01940183 $





000
SAUS41 KRLX 280901 COR
MTRCRW
METAR KCRW 280854Z 25012KT 10SM FEW070 20/18 A2979 RMK AO2 SLP076
T02000183 53004 $





000
SAUS41 KRLX 280800 COR
MTRCRW
METAR KCRW 280754Z 24011KT 10SM CLR 21/19 A2978 RMK AO2 SLP073
T02060189 $





000
SAUS41 KRLX 280700 COR
MTRCRW
METAR KCRW 280654Z 23010KT 10SM FEW095 21/19 A2978 RMK AO2 SLP074
T02060194 $





000
SAUS41 KRLX 280600 COR
MTRCRW
METAR KCRW 280554Z 23009KT 10SM FEW080 FEW095 20/19 A2977 RMK AO2
SLP073 VLY FG 60041 T02000194 10267 20200 53002 $





000
SAUS41 KRLX 280500 COR
MTRCRW
METAR KCRW 280454Z 23009KT 9SM FEW019 OVC090 21/20 A2977 RMK AO2
RAE03B24E38 TSE13 SLP071 TS MOVD SE VLY FG P0001 T02060200 402830206
$





000
SAUS41 KRLX 280425 COR
MTRCRW
SPECI KCRW 280419Z VRB03KT 8SM FEW019 SCT055 OVC100 21/20 A2977 RMK
AO2 RAE03 TSE13 TS MOVD SE VLY FG P0001 T02060200 $





000
SAUS41 KRLX 280400 COR
MTRCRW
METAR KCRW 280354Z 23009KT 5SM -TSRA BR SCT021CB BKN047 OVC080 21/20
A2977 RMK AO2 RAB04 TSE03B15 SLP072 OCNL LTGICCA E-SW TS E-SW MOV SE
VLY FG P0003 T02110200 $





000
SAUS41 KRLX 280321 COR
MTRCRW
SPECI KCRW 280315Z 21003KT 8SM -TSRA SCT025CB BKN050 BKN095 21/20
A2976 RMK AO2 RAB04 TSE03B15 FRQ LTGICCA SW-N TS SW-N MOV SE P0001
T02060200 $





000
SAUS41 KRLX 280309 COR
MTRCRW
SPECI KCRW 280303Z 24005KT 10SM FEW025 BKN050 BKN095 21/20 A2977 RMK
AO2 TSE03 FRQ LTGICCA DSNT ALQDS TS MOVD E CB DSNT ALQDS T02060200 $





000
SAUS41 KRLX 280300 COR
MTRCRW
METAR KCRW 280254Z 22007KT 8SM TS SCT020CB BKN050 BKN110 21/19 A2977
RMK AO2 PK WND 29033/0223 RAE43 TSB0158 SLP072 FRQ LTGICCGCA NE-E-S
TS NE-E-S MOV E P0037 60037 T02060194 53007 $





000
SAUS41 KRLX 280246 COR
MTRCRW
SPECI KCRW 280240Z 24014G31KT 5SM -TSRA BR SCT025CB BKN050 BKN090
OVC130 21/19 A2977 RMK AO2 PK WND 29033/0223 TSB0158 CONS LTGICCGCA
N-E-S TS N-E-S MOV E P0037 T02060194 $





000
SAUS41 KRLX 280229 COR
MTRCRW
SPECI KCRW 280223Z COR 27023G33KT 4SM +TSRA BR BKN018CB BKN049
OVC085 23/22 A2977 RMK AO2 PK WND 29033/0223 TSB0158 PRESRR CONS
LTGICCGCA OHD AND ALQDS TS OHD AND ALQDS MOV E P0005 T02330217 $





000
SAUS41 KRLX 280200
MTRCRW
SPECI KCRW 280158Z 26005KT 10SM -TSRA FEW020CB SCT031 BKN055 BKN130
25/21 A2973 RMK AO2 TSB58 FRQ LTGICCG SW-W TS SW-W-N MOV E P0000
T02500211





000
SAUS41 KRLX 280100 COR
MTRCRW
METAR KCRW 280054Z 24010KT 10SM SCT031 BKN045 BKN090 26/21 A2975 RMK
AO2 SLP065 CB DSNT W-NW T02560211





000
SAUS41 KRLX 280000 COR
MTRCRW
METAR KCRW 272354Z COR 23011G17KT 10SM SCT030TCU BKN049 BKN090 27/21
A2975 RMK AO2 SLP063 TCU ALQDS T02670206 10283 20256 55005





000
SAUS41 KRLX 272300 COR
MTRCRW
METAR KCRW 272254Z 24014G21KT 10SM SCT031TCU SCT050 BKN095 27/21
A2974 RMK AO2 SLP060 TCU NW T02720211





000
SAUS41 KRLX 272200 COR
MTRCRW
METAR KCRW 272154Z 22016G21KT 10SM BKN035 BKN050 BKN100 27/21 A2974
RMK AO2 SLP062 BKN035 V SCT T02720211





000
SAUS41 KRLX 272100 COR
MTRCRW
METAR KCRW 272054Z 24009KT 10SM SCT035 BKN055 BKN100 28/21 A2976 RMK
AO2 SLP068 BKN055 V SCT T02780211 56028





000
SAUS41 KRLX 272000 COR
MTRCRW
METAR KCRW 271954Z 22012G19KT 10SM SCT033 SCT140 SCT220 27/20 A2979
RMK AO2 SLP075 T02720200





000
SAUS41 KRLX 271900 COR
MTRCRW
METAR KCRW 271854Z VRB03KT 10SM SCT033 SCT110 BKN220 27/21 A2981 RMK
AO2 SLP082 T02670211





000
SAUS41 KRLX 271800 COR
MTRCRW
METAR KCRW 271754Z 17004KT 10SM SCT026 BKN110 BKN220 26/21 A2985 RMK
AO2 SLP097 60020 T02560206 10256 20222 56020





000
SAUS41 KRLX 271700 COR
MTRCRW
METAR KCRW 271654Z 20005KT 10SM SCT026 BKN110 BKN250 25/20 A2985 RMK
AO2 SLP100 T02500200





000
SAUS41 KRLX 271645 COR
MTRCRW
SPECI KCRW 271639Z 30007KT 10SM SCT026 BKN110 24/20 A2987 RMK AO2
T02440200





000
SAUS41 KRLX 271600 COR
MTRCRW
METAR KCRW 271554Z 24010KT 10SM BKN026 OVC050 24/21 A2988 RMK AO2
SLP109 T02390206





000
SAUS41 KRLX 271500 COR
MTRCRW
METAR KCRW 271454Z 20009KT 4SM BR FEW014 BKN025CB OVC050 23/21 A2991
RMK AO2 RAB05E51 TSB12E33 SLP120 CB E MOV E P0020 60020 T02280211
53005





000
SAUS41 KRLX 271440 COR
MTRCRW
SPECI KCRW 271434Z VRB06KT 4SM -RA BR SCT014 OVC025CB 22/21 A2991
RMK AO2 RAB05 TSB12E33 CB W MOV E P0012 T02220211





000
SAUS41 KRLX 271423 COR
MTRCRW
SPECI KCRW 271417Z 23006KT 4SM -TSRA BR SCT014CB OVC025 23/21 A2991
RMK AO2 RAB05 TSB12 OCNL LTGCG OHD TS OHD MOV E P0012 T02280211 $





000
SAUS41 KRLX 271400 COR
MTRCRW
METAR KCRW 271354Z 22007KT 10SM OVC026 23/21 A2990 RMK AO2 SLP117
T02330211





000
SAUS41 KRLX 271342 COR
MTRCRW
SPECI KCRW 271336Z 24006KT 10SM OVC028 23/21 A2991 RMK AO2 T02330211





000
SAUS41 KRLX 271309 COR
MTRCRW
METAR KCRW 271254Z COR 22004KT 10SM BKN032 BKN100 23/21 A2989 RMK
AO2 SLP113 T02330211





000
SAUS41 KRLX 271300 COR
MTRCRW
METAR KCRW 271254Z 22004KT 10SM BKN032 BKN100 23/21 A2989 RMK AO2
SLP113 T02330211





000
SAUS41 KRLX 271200 COR
MTRCRW
METAR KCRW 271154Z 17003KT 8SM FEW001 SCT100 BKN150 22/21 A2990 RMK
AO2 SLP114 DNS VLY FG 60006 70006 T02220211 10244 20211 50004





000
SAUS41 KRLX 271111 COR
MTRCRW
SPECI KCRW 271104Z 00000KT 6SM BR FEW001 SCT100 BKN150 21/21 A2991
RMK AO2 DNS VLY FG T02110211





000
SAUS41 KRLX 271100 COR
MTRCRW
METAR KCRW 271054Z 00000KT 8SM SCT100 BKN150 21/21 A2991 RMK AO2
SLP119 DNS VLY FG T02110211





000
SAUS41 KRLX 271001 COR
MTRCRW
METAR KCRW 270954Z 19004KT 10SM FEW033 OVC110 22/21 A2989 RMK AO2
RAB00E11B44E53 SLP112 P0000 T02170206





000
SAUS41 KRLX 270900 COR
MTRCRW
METAR KCRW 270854Z VRB03KT 10SM FEW033 BKN080 22/21 A2988 RMK AO2
RAE33 SLP109 P0003 60006 T02170206 58005





000
SAUS41 KRLX 270800 COR
MTRCRW
METAR KCRW 270754Z 20010KT 7SM -RA FEW033 SCT080 23/21 A2991 RMK AO2
RAB22 SLP117 P0003 T02280206





000
SAUS41 KRLX 270700 COR
MTRCRW
METAR KCRW 270654Z 24012G18KT 10SM SCT033 BKN043 24/20 A2991 RMK AO2
SLP116 T02440200





000
SAUS41 KRLX 270600 COR
MTRCRW
METAR KCRW 270554Z COR 22009KT 10SM BKN048 24/20 A2990 RMK AO2
SLP114 OCNL LTG DSNT SE CB DSNT SE 60000 T02440200 10244 20217 58014





000
SAUS41 KRLX 270500 COR
MTRCRW
METAR KCRW 270454Z 18004KT 8SM BKN050 23/21 A2992 RMK AO2 RAB15E30
SLP120 OCNL LTG DSNT W CB DSNT W P0000 T02280206 402940172





000
SAUS41 KRLX 270400 COR
MTRCRW
METAR KCRW 270354Z 00000KT 10SM BKN050 OVC075 23/21 A2993 RMK AO2
SLP124 OVC V BKN T02280206





000
SAUS41 KRLX 270300 COR
MTRCRW
METAR KCRW 270254Z 00000KT 9SM SCT075 BKN120 22/21 A2994 RMK AO2
SLP129 60000 T02220211 53001





000
SAUS41 KRLX 270200 COR
MTRCRW
METAR KCRW 270154Z 00000KT 10SM FEW085 BKN140 23/20 A2992 RMK AO2
SLP123 T02330200





000
SAUS41 KRLX 270100 COR
MTRCRW
METAR KCRW 270054Z 00000KT 10SM FEW090 BKN140 BKN200 23/21 A2992 RMK
AO2 RAB09E23 SLP122 P0000 T02330211





000
SAUS41 KRLX 270001 COR
MTRCRW
METAR KCRW 262354Z COR 01005KT 10SM SCT085 BKN100 BKN150 24/21 A2994
RMK AO2 SLP130 CB DSNT N-NE T02440206 10294 20244 55001





000
SAUS41 KRLX 262300 COR
MTRCRW
METAR KCRW 262254Z 00000KT 10SM FEW085 BKN100 BKN250 27/19 A2993 RMK
AO2 SLP126 CB DSNT NW T02720189





000
SAUS41 KRLX 262201 COR
MTRCRW
METAR KCRW 262154Z 21007KT 10SM BKN250 28/17 A2993 RMK AO2 SLP127
T02780172





000
SAUS41 KRLX 262100
MTRCRW
METAR KCRW 262054Z COR 23009KT 10SM FEW050 SCT180 29/18 A2994 RMK
AO2 SLP129  T02940178 56016





000
SAUS41 KRLX 262000 COR
MTRCRW
METAR KCRW 261954Z 23008KT 10SM SCT050 SCT180 29/17 A2995 RMK AO2
SLP133 T02890167





000
SAUS41 KRLX 261900 COR
MTRCRW
METAR KCRW 261854Z 26008KT 10SM SCT047 SCT095 SCT180 28/17 A2998 RMK
AO2 SLP141 T02830172





000
SAUS41 KRLX 261800 COR
MTRCRW
METAR KCRW 261754Z 25008KT 10SM FEW044 SCT095 SCT250 28/17 A2999 RMK
AO2 SLP147 T02780167 10283 20178 58014





000
SAUS41 KRLX 261700 COR
MTRCRW
METAR KCRW 261654Z 25006KT 10SM FEW038 SCT085 SCT250 27/17 A3002 RMK
AO2 SLP157 T02720172





000
SAUS41 KRLX 261600 COR
MTRCRW
METAR KCRW 261554Z 21004KT 10SM FEW035 SCT250 26/17 A3004 RMK AO2
SLP165 T02610167





000
SAUS41 KRLX 261500 COR
MTRCRW
METAR KCRW 261454Z VRB04KT 10SM FEW090 24/17 A3003 RMK AO2 SLP162
T02440167 58003 $





000
SAUS41 KRLX 261400 COR
MTRCRW
METAR KCRW 261354Z 19005KT 10SM FEW090 23/17 A3004 RMK AO2 SLP165
T02330167 $





000
SAUS41 KRLX 261301 COR
MTRCRW
METAR KCRW 261254Z COR 00000KT 8SM SCT090 21/18 A3004 RMK AO2 SLP165
T02060178 $





000
SAUS41 KRLX 261200 COR
MTRCRW
METAR KCRW 261154Z 00000KT 6SM BR FEW001 SCT090 18/17 A3004 RMK AO2
SLP166 VLY FG T01780172 10183 20172 53007 $





000
SAUS41 KRLX 261125 COR
MTRCRW
SPECI KCRW 261119Z 00000KT 6SM BR FEW001 SCT090 17/17 A3004 RMK AO2
VLY FG T01720172 $





000
SAUS41 KRLX 261100 COR
MTRCRW
METAR KCRW 261054Z 00000KT 6SM BR SCT095 17/17 A3003 RMK AO2 SLP162
VLY FG T01720172 $





000
SAUS41 KRLX 261000 COR
MTRCRW
METAR KCRW 260954Z 00000KT 6SM BR BKN100 17/17 A3002 RMK AO2 SLP159
VLY FG T01720172 $





000
SAUS41 KRLX 260901 COR
MTRCRW
METAR KCRW 260854Z 00000KT 6SM BR FEW100 SCT160 17/17 A3002 RMK AO2
SLP157 T01720172 55002 $





000
SAUS41 KRLX 260800 COR
MTRCRW
METAR KCRW 260754Z 00000KT 7SM SCT120 18/17 A3002 RMK AO2 SLP158 VLY
FG T01780172 $





000
SAUS41 KRLX 260700 COR
MTRCRW
METAR KCRW 260654Z 00000KT 8SM SCT130 18/17 A3002 RMK AO2 SLP157 VLY
FG T01780172 $





    US Dept of Commerce
    National Oceanic and Atmospheric Administration
    National Weather Service
    1325 East West Highway
    Silver Spring, MD 20910
    Page Author: NWS Internet Services Team
Disclaimer
Information Quality
Credits
Glossary
Privacy Policy
Freedom of Information Act (FOIA)
About Us
Career Opportunities